ZWL weather

Wollaston Lake Airport
Wollaston Lake, Saskatchewan, Canada

Public forecast

Using degrees Celsius for public forecast. Weather courtesy of forecast.io.

METAR (pilot weather report)

Closest report is Key Lake Airport, 93.7 nm (173.5 km) WSW. Retrieved 2019/07/16 03:00 UTC (50 minutes ago):

CYKJ 160300Z AUTO 28004KT 9SM CLR 18/09 A2987 RMK SLP127 DENSITY ALT 2400FT

TAF (pilot weather forecast)

Forecast is more than 6 hours old.

Closest forecast is Key Lake Airport, 93.7 nm (173.5 km) WSW. Retrieved 2019/07/15 19:00 UTC (9 hours ago):

TAF CYKJ 151838Z 1519/1524 36010KT P6SM SCT030 BKN040 RMK FCST BASED ON AUTO OBS. NXT FCST WILL BE ISSUED AT 160945Z